createdAt,value
2018-11-22T01:29:10.778Z,1021.60
2018-11-22T01:29:11.354Z,1021.53
2018-11-22T01:29:11.953Z,1021.56
2018-11-22T01:29:12.553Z,1021.53
2018-11-22T01:29:13.155Z,1021.54
2018-11-22T01:29:13.753Z,1021.53
2018-11-22T01:29:14.353Z,1021.57
2018-11-22T01:29:14.955Z,1021.59
2018-11-22T01:30:09.457Z,1021.58
2018-11-22T01:30:10.029Z,1021.56
2018-11-22T01:30:10.630Z,1021.58
2018-11-22T01:30:11.233Z,1021.60
2018-11-22T01:30:11.830Z,1021.59
2018-11-22T01:30:12.428Z,1021.53
2018-11-22T01:30:13.028Z,1021.54
2018-11-22T01:30:13.627Z,1021.51
2018-11-22T01:31:07.085Z,1021.51
2018-11-22T01:31:07.683Z,1021.59
2018-11-22T01:31:08.283Z,1021.55
2018-11-22T01:31:08.881Z,1021.57
2018-11-22T01:31:09.482Z,1021.52
2018-11-22T01:31:10.107Z,1021.54
2018-11-22T01:31:10.681Z,1021.54
2018-11-22T01:31:11.279Z,1021.57
2018-11-22T01:32:04.745Z,1021.55
2018-11-22T01:32:05.343Z,1021.51
2018-11-22T01:32:05.935Z,1021.50
2018-11-22T01:32:06.537Z,1021.52
2018-11-22T01:32:07.135Z,1021.55
2018-11-22T01:32:07.734Z,1021.57
2018-11-22T01:32:08.334Z,1021.55
2018-11-22T01:32:08.935Z,1021.54
2018-11-22T01:33:03.413Z,1021.57
2018-11-22T01:33:04.011Z,1021.59
2018-11-22T01:33:04.610Z,1021.56
2018-11-22T01:33:05.210Z,1021.55
2018-11-22T01:33:05.811Z,1021.56
2018-11-22T01:33:06.413Z,1021.51
2018-11-22T01:33:07.009Z,1021.54
2018-11-22T01:33:07.609Z,1021.54
2018-11-22T01:34:02.090Z,1021.57
2018-11-22T01:34:02.687Z,1021.56
2018-11-22T01:34:03.287Z,1021.52
2018-11-22T01:34:03.887Z,1021.57
2018-11-22T01:34:04.486Z,1021.53
2018-11-22T01:34:05.086Z,1021.52
2018-11-22T01:34:05.685Z,1021.51
2018-11-22T01:34:06.285Z,1021.50
2018-11-22T01:34:59.743Z,1021.53
2018-11-22T01:35:00.339Z,1021.50
2018-11-22T01:35:00.940Z,1021.54
2018-11-22T01:35:01.543Z,1021.49
2018-11-22T01:35:02.138Z,1021.48
2018-11-22T01:35:02.741Z,1021.54
2018-11-22T01:35:03.338Z,1021.50
2018-11-22T01:35:03.939Z,1021.52
2018-11-22T01:35:57.417Z,1021.54
2018-11-22T01:35:57.991Z,1021.54
2018-11-22T01:35:58.591Z,1021.49
2018-11-22T01:35:59.191Z,1021.48
2018-11-22T01:35:59.791Z,1021.48
2018-11-22T01:36:00.391Z,1021.50
2018-11-22T01:36:00.991Z,1021.53
2018-11-22T01:36:01.590Z,1021.53
2018-11-22T01:36:56.070Z,1021.51
2018-11-22T01:36:56.666Z,1021.55
2018-11-22T01:36:57.267Z,1021.51
2018-11-22T01:36:57.867Z,1021.54
2018-11-22T01:36:58.466Z,1021.50
2018-11-22T01:36:59.066Z,1021.53
2018-11-22T01:36:59.664Z,1021.52
2018-11-22T01:37:00.265Z,1021.54
2018-11-22T01:37:53.722Z,1021.54
2018-11-22T01:37:54.319Z,1021.53
2018-11-22T01:37:54.919Z,1021.54
2018-11-22T01:37:55.518Z,1021.55
2018-11-22T01:37:56.118Z,1021.54
2018-11-22T01:37:56.717Z,1021.55
2018-11-22T01:37:57.322Z,1021.47
2018-11-22T01:37:57.918Z,1021.53
2018-11-22T01:38:52.399Z,1021.54
2018-11-22T01:38:52.995Z,1021.56
2018-11-22T01:38:53.594Z,1021.53
2018-11-22T01:38:54.195Z,1021.55
2018-11-22T01:38:54.797Z,1021.55
2018-11-22T01:38:55.396Z,1021.54
2018-11-22T01:38:55.994Z,1021.57
2018-11-22T01:38:56.592Z,1021.56
2018-11-22T01:39:51.074Z,1021.57
2018-11-22T01:39:51.670Z,1021.53
2018-11-22T01:39:52.271Z,1021.58
2018-11-22T01:39:52.870Z,1021.55
2018-11-22T01:39:53.469Z,1021.53
2018-11-22T01:39:54.070Z,1021.51
2018-11-22T01:39:54.674Z,1021.53
2018-11-22T01:39:55.269Z,1021.50
2018-11-22T01:40:48.724Z,1021.57
2018-11-22T01:40:49.323Z,1021.54
2018-11-22T01:40:49.922Z,1021.55
2018-11-22T01:40:50.522Z,1021.55
2018-11-22T01:40:51.122Z,1021.53
2018-11-22T01:40:51.723Z,1021.55
2018-11-22T01:40:52.322Z,1021.50
2018-11-22T01:40:52.921Z,1021.56
2018-11-22T01:41:47.426Z,1021.52
2018-11-22T01:41:47.996Z,1021.52
2018-11-22T01:41:48.598Z,1021.51
2018-11-22T01:41:49.196Z,1021.49
2018-11-22T01:41:49.797Z,1021.50
2018-11-22T01:41:50.396Z,1021.54
2018-11-22T01:41:50.996Z,1021.51
2018-11-22T01:41:51.598Z,1021.54
2018-11-22T01:42:45.055Z,1021.53
2018-11-22T01:42:45.650Z,1021.52
2018-11-22T01:42:46.250Z,1021.53
2018-11-22T01:42:46.850Z,1021.50
2018-11-22T01:42:47.450Z,1021.55
2018-11-22T01:42:48.048Z,1021.55
2018-11-22T01:42:48.652Z,1021.54
2018-11-22T01:42:49.248Z,1021.52
2018-11-22T01:43:42.706Z,1021.54
2018-11-22T01:43:43.302Z,1021.53
2018-11-22T01:43:43.904Z,1021.55
2018-11-22T01:43:44.503Z,1021.54
2018-11-22T01:43:45.101Z,1021.51
2018-11-22T01:43:45.703Z,1021.55
2018-11-22T01:43:46.301Z,1021.52
2018-11-22T01:43:46.902Z,1021.53
2018-11-22T01:44:40.356Z,1021.56
2018-11-22T01:44:40.955Z,1021.55
2018-11-22T01:44:41.555Z,1021.56
2018-11-22T01:44:42.154Z,1021.56
2018-11-22T01:44:42.754Z,1021.54
2018-11-22T01:44:43.354Z,1021.54
2018-11-22T01:44:43.954Z,1021.57
2018-11-22T01:44:44.554Z,1021.54
2018-11-22T01:45:38.008Z,1021.54
2018-11-22T01:45:38.605Z,1021.50
2018-11-22T01:45:39.206Z,1021.53
2018-11-22T01:45:39.809Z,1021.56
2018-11-22T01:45:40.404Z,1021.57
2018-11-22T01:45:41.003Z,1021.56
2018-11-22T01:45:41.604Z,1021.50
2018-11-22T01:45:42.206Z,1021.51
2018-11-22T01:46:36.712Z,1021.54
2018-11-22T01:46:37.283Z,1021.55
2018-11-22T01:46:37.880Z,1021.52
2018-11-22T01:46:38.480Z,1021.54
2018-11-22T01:46:39.080Z,1021.54
2018-11-22T01:46:39.679Z,1021.51
2018-11-22T01:46:40.283Z,1021.50
2018-11-22T01:46:40.879Z,1021.51
2018-11-22T01:47:34.336Z,1021.52
2018-11-22T01:47:34.933Z,1021.54
2018-11-22T01:47:35.532Z,1021.50
2018-11-22T01:47:36.133Z,1021.55
2018-11-22T01:47:36.733Z,1021.51
2018-11-22T01:47:37.342Z,1021.53
2018-11-22T01:47:37.931Z,1021.54
2018-11-22T01:47:38.533Z,1021.52
2018-11-22T01:48:33.010Z,1021.52
2018-11-22T01:48:33.608Z,1021.56
2018-11-22T01:48:34.207Z,1021.52
2018-11-22T01:48:34.808Z,1021.51
2018-11-22T01:48:35.407Z,1021.54
2018-11-22T01:48:36.007Z,1021.53
2018-11-22T01:48:36.607Z,1021.54
2018-11-22T01:48:37.207Z,1021.51
2018-11-22T01:49:31.690Z,1021.51
2018-11-22T01:49:32.284Z,1021.51
2018-11-22T01:49:32.883Z,1021.52
2018-11-22T01:49:33.488Z,1021.48
2018-11-22T01:49:34.085Z,1021.50
2018-11-22T01:49:34.690Z,1021.52
2018-11-22T01:49:35.282Z,1021.53
2018-11-22T01:49:35.885Z,1021.51
2018-11-22T01:50:30.362Z,1021.53
2018-11-22T01:50:30.958Z,1021.53
2018-11-22T01:50:31.560Z,1021.52
2018-11-22T01:50:32.160Z,1021.50
2018-11-22T01:50:32.760Z,1021.53
2018-11-22T01:50:33.358Z,1021.55
2018-11-22T01:50:33.958Z,1021.53
2018-11-22T01:50:34.557Z,1021.52
2018-11-22T01:51:28.016Z,1021.53
2018-11-22T01:51:28.614Z,1021.56
2018-11-22T01:51:29.253Z,1021.53
2018-11-22T01:51:29.812Z,1021.50
2018-11-22T01:51:30.411Z,1021.49
2018-11-22T01:51:31.011Z,1021.49
2018-11-22T01:51:31.611Z,1021.52
2018-11-22T01:51:32.210Z,1021.53
2018-11-22T01:52:26.712Z,1021.49
2018-11-22T01:52:27.287Z,1021.52
2018-11-22T01:52:27.886Z,1021.50
2018-11-22T01:52:28.487Z,1021.52
2018-11-22T01:52:29.086Z,1021.57
2018-11-22T01:52:29.687Z,1021.50
2018-11-22T01:52:30.285Z,1021.52
2018-11-22T01:52:30.888Z,1021.51
2018-11-22T01:53:25.366Z,1021.48
2018-11-22T01:53:25.963Z,1021.48
2018-11-22T01:53:26.563Z,1021.50
2018-11-22T01:53:27.162Z,1021.51
2018-11-22T01:53:27.761Z,1021.51
2018-11-22T01:53:28.362Z,1021.53
2018-11-22T01:53:28.961Z,1021.51
2018-11-22T01:53:29.564Z,1021.52
2018-11-22T01:54:24.041Z,1021.54
2018-11-22T01:54:24.643Z,1021.52
2018-11-22T01:54:25.238Z,1021.54
2018-11-22T01:54:25.839Z,1021.49
2018-11-22T01:54:26.438Z,1021.53
2018-11-22T01:54:27.038Z,1021.53
2018-11-22T01:54:27.637Z,1021.51
2018-11-22T01:54:28.239Z,1021.54
2018-11-22T01:55:22.719Z,1021.49
2018-11-22T01:55:23.314Z,1021.48
2018-11-22T01:55:23.916Z,1021.47
2018-11-22T01:55:24.515Z,1021.53
2018-11-22T01:55:25.114Z,1021.47
2018-11-22T01:55:25.713Z,1021.51
2018-11-22T01:55:26.313Z,1021.48
2018-11-22T01:55:26.912Z,1021.44
2018-11-22T01:56:21.394Z,1021.52
2018-11-22T01:56:21.990Z,1021.53
2018-11-22T01:56:22.590Z,1021.55
2018-11-22T01:56:23.192Z,1021.56
2018-11-22T01:56:23.789Z,1021.52
2018-11-22T01:56:24.389Z,1021.54
2018-11-22T01:56:24.989Z,1021.54
2018-11-22T01:56:25.593Z,1021.54
2018-11-22T01:57:19.070Z,1021.49
2018-11-22T01:57:19.646Z,1021.51
2018-11-22T01:57:20.242Z,1021.49
2018-11-22T01:57:20.842Z,1021.47
2018-11-22T01:57:21.440Z,1021.46
2018-11-22T01:57:22.042Z,1021.48
2018-11-22T01:57:22.642Z,1021.47
2018-11-22T01:57:23.243Z,1021.46
2018-11-22T01:58:17.720Z,1021.51
2018-11-22T01:58:18.318Z,1021.53
2018-11-22T01:58:18.916Z,1021.51
2018-11-22T01:58:19.517Z,1021.49
2018-11-22T01:58:20.117Z,1021.50
2018-11-22T01:58:20.717Z,1021.51
2018-11-22T01:58:21.315Z,1021.54
2018-11-22T01:58:21.918Z,1021.52
2018-11-22T01:59:16.395Z,1021.49
2018-11-22T01:59:16.992Z,1021.49
2018-11-22T01:59:17.593Z,1021.50
2018-11-22T01:59:18.193Z,1021.52
2018-11-22T01:59:18.792Z,1021.50
2018-11-22T01:59:19.392Z,1021.49
2018-11-22T01:59:19.993Z,1021.53
2018-11-22T01:59:20.594Z,1021.53
2018-11-22T02:00:15.076Z,1021.50
2018-11-22T02:00:15.671Z,1021.49
2018-11-22T02:00:16.268Z,1021.48
2018-11-22T02:00:16.868Z,1021.49
2018-11-22T02:00:17.469Z,1021.52
2018-11-22T02:00:18.068Z,1021.49
2018-11-22T02:00:18.668Z,1021.48
2018-11-22T02:00:19.267Z,1021.47
2018-11-22T02:01:13.747Z,1021.56
2018-11-22T02:01:14.344Z,1021.54
2018-11-22T02:01:14.944Z,1021.51
2018-11-22T02:01:15.543Z,1021.53
2018-11-22T02:01:16.145Z,1021.53
2018-11-22T02:01:16.746Z,1021.55
2018-11-22T02:01:17.344Z,1021.53
2018-11-22T02:01:17.944Z,1021.54
2018-11-22T02:02:11.433Z,1021.53
2018-11-22T02:02:11.998Z,1021.52
2018-11-22T02:02:12.603Z,1021.53
2018-11-22T02:02:13.198Z,1021.56
2018-11-22T02:02:13.796Z,1021.53
2018-11-22T02:02:14.395Z,1021.51
2018-11-22T02:02:14.996Z,1021.55
2018-11-22T02:02:15.595Z,1021.53
2018-11-22T02:03:09.053Z,1021.56
2018-11-22T02:03:09.648Z,1021.54
2018-11-22T02:03:10.249Z,1021.55
2018-11-22T02:03:10.849Z,1021.55
2018-11-22T02:03:11.448Z,1021.50
2018-11-22T02:03:12.049Z,1021.49
2018-11-22T02:03:12.649Z,1021.52
2018-11-22T02:03:13.251Z,1021.49
2018-11-22T02:04:07.726Z,1021.56
2018-11-22T02:04:08.323Z,1021.56
2018-11-22T02:04:08.923Z,1021.53
2018-11-22T02:04:09.523Z,1021.54
2018-11-22T02:04:10.126Z,1021.51
2018-11-22T02:04:10.722Z,1021.54
2018-11-22T02:04:11.323Z,1021.55
2018-11-22T02:04:11.924Z,1021.52
2018-11-22T02:05:05.378Z,1021.57
2018-11-22T02:05:05.976Z,1021.54
2018-11-22T02:05:06.576Z,1021.51
2018-11-22T02:05:07.180Z,1021.56
2018-11-22T02:05:07.776Z,1021.58
2018-11-22T02:05:08.376Z,1021.54
2018-11-22T02:05:08.975Z,1021.55
2018-11-22T02:05:09.576Z,1021.53
2018-11-22T02:06:03.031Z,1021.56
2018-11-22T02:06:03.628Z,1021.54
2018-11-22T02:06:04.227Z,1021.53
2018-11-22T02:06:04.828Z,1021.54
2018-11-22T02:06:05.432Z,1021.54
2018-11-22T02:06:06.027Z,1021.54
2018-11-22T02:06:06.626Z,1021.55
2018-11-22T02:06:07.227Z,1021.55
2018-11-22T02:07:01.708Z,1021.57
2018-11-22T02:07:02.302Z,1021.55
2018-11-22T02:07:02.901Z,1021.54
2018-11-22T02:07:03.502Z,1021.53
2018-11-22T02:07:04.103Z,1021.54
2018-11-22T02:07:04.702Z,1021.55
2018-11-22T02:07:05.302Z,1021.52
2018-11-22T02:07:05.901Z,1021.50
2018-11-22T02:07:59.382Z,1021.57
2018-11-22T02:07:59.957Z,1021.52
2018-11-22T02:08:00.555Z,1021.52
2018-11-22T02:08:01.155Z,1021.52
2018-11-22T02:08:01.757Z,1021.55
2018-11-22T02:08:02.356Z,1021.56
2018-11-22T02:08:02.955Z,1021.52
2018-11-22T02:08:03.555Z,1021.50
2018-11-22T02:08:57.009Z,1021.55
2018-11-22T02:08:57.607Z,1021.57
2018-11-22T02:08:58.211Z,1021.57
2018-11-22T02:08:58.805Z,1021.52
2018-11-22T02:08:59.411Z,1021.52
2018-11-22T02:09:00.011Z,1021.51
2018-11-22T02:09:00.605Z,1021.58
2018-11-22T02:09:01.207Z,1021.57
2018-11-22T02:09:54.665Z,1021.52
2018-11-22T02:09:55.258Z,1021.51
2018-11-22T02:09:55.857Z,1021.55
2018-11-22T02:09:56.458Z,1021.53
2018-11-22T02:09:57.057Z,1021.55
2018-11-22T02:09:57.657Z,1021.54
2018-11-22T02:09:58.257Z,1021.53
2018-11-22T02:09:58.858Z,1021.55
2018-11-22T02:10:52.312Z,1021.53
2018-11-22T02:10:52.910Z,1021.56
2018-11-22T02:10:53.510Z,1021.60
2018-11-22T02:10:54.111Z,1021.54
2018-11-22T02:10:54.709Z,1021.56
2018-11-22T02:10:55.310Z,1021.55
2018-11-22T02:10:55.909Z,1021.56
2018-11-22T02:10:56.510Z,1021.52
2018-11-22T02:11:49.965Z,1021.55
2018-11-22T02:11:50.564Z,1021.56
2018-11-22T02:11:51.161Z,1021.54
2018-11-22T02:11:51.761Z,1021.54
2018-11-22T02:11:52.362Z,1021.58
2018-11-22T02:11:52.962Z,1021.57
2018-11-22T02:11:53.562Z,1021.58
2018-11-22T02:11:54.163Z,1021.55
2018-11-22T02:12:47.646Z,1021.54
2018-11-22T02:12:48.214Z,1021.56
2018-11-22T02:12:48.814Z,1021.57
2018-11-22T02:12:49.413Z,1021.58
2018-11-22T02:12:50.016Z,1021.57
2018-11-22T02:12:50.613Z,1021.53
2018-11-22T02:12:51.217Z,1021.55
2018-11-22T02:12:51.817Z,1021.56
2018-11-22T02:13:45.269Z,1021.60
2018-11-22T02:13:45.865Z,1021.56
2018-11-22T02:13:46.465Z,1021.56
2018-11-22T02:13:47.064Z,1021.55
2018-11-22T02:13:47.665Z,1021.58
2018-11-22T02:13:48.264Z,1021.57
2018-11-22T02:13:48.864Z,1021.58
2018-11-22T02:13:49.464Z,1021.58
2018-11-22T02:14:43.943Z,1021.61
2018-11-22T02:14:44.540Z,1021.61
2018-11-22T02:14:45.140Z,1021.56
2018-11-22T02:14:45.739Z,1021.60
2018-11-22T02:14:46.340Z,1021.59
2018-11-22T02:14:46.940Z,1021.64
2018-11-22T02:14:47.538Z,1021.59
2018-11-22T02:14:48.138Z,1021.60
2018-11-22T02:15:42.619Z,1021.58
2018-11-22T02:15:43.216Z,1021.58
2018-11-22T02:15:43.815Z,1021.60
2018-11-22T02:15:44.415Z,1021.57
2018-11-22T02:15:45.017Z,1021.57
2018-11-22T02:15:45.615Z,1021.56
2018-11-22T02:15:46.221Z,1021.61
2018-11-22T02:15:46.816Z,1021.61
2018-11-22T02:16:40.271Z,1021.57
2018-11-22T02:16:40.867Z,1021.56
2018-11-22T02:16:41.468Z,1021.58
2018-11-22T02:16:42.068Z,1021.57
2018-11-22T02:16:42.670Z,1021.61
2018-11-22T02:16:43.267Z,1021.62
2018-11-22T02:16:43.868Z,1021.59
2018-11-22T02:16:44.467Z,1021.59
2018-11-22T02:17:38.952Z,1021.61
2018-11-22T02:17:39.543Z,1021.59
2018-11-22T02:17:40.143Z,1021.57
2018-11-22T02:17:40.742Z,1021.62
2018-11-22T02:17:41.343Z,1021.58
2018-11-22T02:17:41.942Z,1021.55
2018-11-22T02:17:42.545Z,1021.54
2018-11-22T02:17:43.143Z,1021.57
2018-11-22T02:18:37.645Z,1021.61
2018-11-22T02:18:38.218Z,1021.58
2018-11-22T02:18:38.819Z,1021.58
2018-11-22T02:18:39.420Z,1021.61
2018-11-22T02:18:40.022Z,1021.57
2018-11-22T02:18:40.617Z,1021.59
2018-11-22T02:18:41.217Z,1021.59
2018-11-22T02:18:41.820Z,1021.59
2018-11-22T02:19:35.273Z,1021.63
2018-11-22T02:19:35.876Z,1021.65
2018-11-22T02:19:36.473Z,1021.63
2018-11-22T02:19:37.072Z,1021.61
2018-11-22T02:19:37.671Z,1021.62
2018-11-22T02:19:38.271Z,1021.59
2018-11-22T02:19:38.871Z,1021.61
2018-11-22T02:19:39.472Z,1021.62
2018-11-22T02:20:33.950Z,1021.55
2018-11-22T02:20:34.547Z,1021.54
2018-11-22T02:20:35.147Z,1021.54
2018-11-22T02:20:35.746Z,1021.58
2018-11-22T02:20:36.346Z,1021.59
2018-11-22T02:20:36.946Z,1021.60
2018-11-22T02:20:37.546Z,1021.55
2018-11-22T02:20:38.147Z,1021.57
2018-11-22T02:21:32.624Z,1021.58
2018-11-22T02:21:33.222Z,1021.59
2018-11-22T02:21:33.823Z,1021.56
2018-11-22T02:21:34.423Z,1021.54
2018-11-22T02:21:35.022Z,1021.53
2018-11-22T02:21:35.622Z,1021.51
2018-11-22T02:21:36.223Z,1021.50
2018-11-22T02:21:36.822Z,1021.57
2018-11-22T02:22:31.330Z,1021.56
2018-11-22T02:22:31.902Z,1021.59
2018-11-22T02:22:32.502Z,1021.55
2018-11-22T02:22:33.103Z,1021.55
2018-11-22T02:22:33.701Z,1021.58
2018-11-22T02:22:34.302Z,1021.59
2018-11-22T02:22:34.901Z,1021.57
2018-11-22T02:22:35.503Z,1021.57
2018-11-22T02:23:29.001Z,1021.54
2018-11-22T02:23:29.554Z,1021.56
2018-11-22T02:23:30.156Z,1021.56
2018-11-22T02:23:30.755Z,1021.54
2018-11-22T02:23:31.356Z,1021.56
2018-11-22T02:23:31.954Z,1021.52
2018-11-22T02:23:32.554Z,1021.59
2018-11-22T02:23:33.155Z,1021.59
2018-11-22T02:24:26.612Z,1021.55
2018-11-22T02:24:27.207Z,1021.57
2018-11-22T02:24:27.807Z,1021.55
2018-11-22T02:24:28.406Z,1021.57
2018-11-22T02:24:29.007Z,1021.56
2018-11-22T02:24:29.607Z,1021.60
2018-11-22T02:24:30.207Z,1021.59
2018-11-22T02:24:30.807Z,1021.56
2018-11-22T02:25:25.285Z,1021.56
2018-11-22T02:25:25.884Z,1021.59
2018-11-22T02:25:26.482Z,1021.60
2018-11-22T02:25:27.081Z,1021.57
2018-11-22T02:25:27.681Z,1021.59
2018-11-22T02:25:28.281Z,1021.60
2018-11-22T02:25:28.880Z,1021.62
2018-11-22T02:25:29.482Z,1021.60
2018-11-22T02:26:22.938Z,1021.50
2018-11-22T02:26:23.534Z,1021.49
2018-11-22T02:26:24.134Z,1021.58
2018-11-22T02:26:24.733Z,1021.57
2018-11-22T02:26:25.333Z,1021.55
2018-11-22T02:26:25.934Z,1021.55
2018-11-22T02:26:26.534Z,1021.55
2018-11-22T02:26:27.136Z,1021.56
2018-11-22T02:27:21.635Z,1021.55
2018-11-22T02:27:22.210Z,1021.54
2018-11-22T02:27:22.809Z,1021.52
2018-11-22T02:27:23.408Z,1021.52
2018-11-22T02:27:24.011Z,1021.51
2018-11-22T02:27:24.610Z,1021.52
2018-11-22T02:27:25.249Z,1021.54
2018-11-22T02:27:25.808Z,1021.57
2018-11-22T02:28:19.263Z,1021.56
2018-11-22T02:28:19.862Z,1021.56
2018-11-22T02:28:20.461Z,1021.53
2018-11-22T02:28:21.063Z,1021.56
2018-11-22T02:28:21.662Z,1021.52
2018-11-22T02:28:22.259Z,1021.52
2018-11-22T02:28:22.861Z,1021.53
2018-11-22T02:28:23.462Z,1021.55
2018-11-22T02:29:17.940Z,1021.54
2018-11-22T02:29:18.539Z,1021.54
2018-11-22T02:29:19.137Z,1021.51
2018-11-22T02:29:19.736Z,1021.53
2018-11-22T02:29:20.337Z,1021.53
2018-11-22T02:29:20.935Z,1021.50
2018-11-22T02:29:21.536Z,1021.51
2018-11-22T02:29:22.135Z,1021.53
2018-11-22T02:30:16.620Z,1021.54
2018-11-22T02:30:17.213Z,1021.50
2018-11-22T02:30:17.811Z,1021.49
2018-11-22T02:30:18.412Z,1021.52
2018-11-22T02:30:19.013Z,1021.53
2018-11-22T02:30:19.611Z,1021.47
2018-11-22T02:30:20.211Z,1021.46
2018-11-22T02:30:20.812Z,1021.48
2018-11-22T02:31:14.267Z,1021.50
2018-11-22T02:31:14.867Z,1021.50
2018-11-22T02:31:15.464Z,1021.49
2018-11-22T02:31:16.065Z,1021.46
2018-11-22T02:31:16.664Z,1021.49
2018-11-22T02:31:17.265Z,1021.49
2018-11-22T02:31:17.864Z,1021.48
2018-11-22T02:31:18.463Z,1021.44
2018-11-22T02:32:12.971Z,1021.52
2018-11-22T02:32:13.541Z,1021.54
2018-11-22T02:32:14.143Z,1021.49
2018-11-22T02:32:14.739Z,1021.49
2018-11-22T02:32:15.341Z,1021.55
2018-11-22T02:32:15.939Z,1021.51
2018-11-22T02:32:16.540Z,1021.54
2018-11-22T02:32:17.138Z,1021.50
2018-11-22T02:33:10.597Z,1021.50
2018-11-22T02:33:11.195Z,1021.50
2018-11-22T02:33:11.797Z,1021.44
2018-11-22T02:33:12.395Z,1021.46
2018-11-22T02:33:12.993Z,1021.49
2018-11-22T02:33:13.594Z,1021.49
2018-11-22T02:33:14.194Z,1021.54
2018-11-22T02:33:14.794Z,1021.48
2018-11-22T02:34:08.247Z,1021.51
2018-11-22T02:34:08.844Z,1021.49
2018-11-22T02:34:09.443Z,1021.50
2018-11-22T02:34:10.043Z,1021.49
2018-11-22T02:34:10.642Z,1021.48
2018-11-22T02:34:11.242Z,1021.48
2018-11-22T02:34:11.846Z,1021.50
2018-11-22T02:34:12.442Z,1021.46
2018-11-22T02:35:05.899Z,1021.52
2018-11-22T02:35:06.496Z,1021.50
2018-11-22T02:35:07.100Z,1021.46
2018-11-22T02:35:07.699Z,1021.46
2018-11-22T02:35:08.295Z,1021.45
2018-11-22T02:35:08.895Z,1021.49
2018-11-22T02:35:09.494Z,1021.45
2018-11-22T02:35:10.094Z,1021.47
2018-11-22T02:36:04.574Z,1021.49
2018-11-22T02:36:05.170Z,1021.50
2018-11-22T02:36:05.771Z,1021.54
2018-11-22T02:36:06.371Z,1021.51
2018-11-22T02:36:06.971Z,1021.50
2018-11-22T02:36:07.569Z,1021.49
2018-11-22T02:36:08.169Z,1021.49
2018-11-22T02:36:08.770Z,1021.49
2018-11-22T02:37:03.253Z,1021.48
2018-11-22T02:37:03.846Z,1021.45
2018-11-22T02:37:04.445Z,1021.42
2018-11-22T02:37:05.044Z,1021.43
2018-11-22T02:37:05.646Z,1021.44
2018-11-22T02:37:06.245Z,1021.44
2018-11-22T02:37:06.845Z,1021.46
2018-11-22T02:37:07.445Z,1021.44
2018-11-22T02:38:00.924Z,1021.44
2018-11-22T02:38:01.505Z,1021.41
2018-11-22T02:38:02.101Z,1021.40
2018-11-22T02:38:02.698Z,1021.41
2018-11-22T02:38:03.299Z,1021.44
2018-11-22T02:38:03.897Z,1021.42
2018-11-22T02:38:04.500Z,1021.46
2018-11-22T02:38:05.101Z,1021.40
2018-11-22T02:38:58.553Z,1021.46
2018-11-22T02:38:59.150Z,1021.44
2018-11-22T02:38:59.751Z,1021.45
2018-11-22T02:39:00.354Z,1021.41
2018-11-22T02:39:00.952Z,1021.41
2018-11-22T02:39:01.556Z,1021.44
2018-11-22T02:39:02.152Z,1021.40
2018-11-22T02:39:02.750Z,1021.49
2018-11-22T02:39:56.204Z,1021.48
2018-11-22T02:39:56.806Z,1021.44
2018-11-22T02:39:57.402Z,1021.46
2018-11-22T02:39:58.001Z,1021.44
2018-11-22T02:39:58.600Z,1021.41
2018-11-22T02:39:59.200Z,1021.44
2018-11-22T02:39:59.800Z,1021.40
2018-11-22T02:40:00.401Z,1021.45
2018-11-22T02:40:53.857Z,1021.42
2018-11-22T02:40:54.464Z,1021.42
2018-11-22T02:40:55.059Z,1021.44
2018-11-22T02:40:55.654Z,1021.39
2018-11-22T02:40:56.255Z,1021.43
2018-11-22T02:40:56.853Z,1021.42
2018-11-22T02:40:57.454Z,1021.41
2018-11-22T02:40:58.054Z,1021.37
2018-11-22T02:41:51.514Z,1021.38
2018-11-22T02:41:52.107Z,1021.39
2018-11-22T02:41:52.705Z,1021.40
2018-11-22T02:41:53.304Z,1021.39
2018-11-22T02:41:53.905Z,1021.40
2018-11-22T02:41:54.505Z,1021.40
2018-11-22T02:41:55.106Z,1021.42
2018-11-22T02:41:55.712Z,1021.40
2018-11-22T02:42:49.185Z,1021.40
2018-11-22T02:42:49.758Z,1021.43
2018-11-22T02:42:50.356Z,1021.41
2018-11-22T02:42:50.956Z,1021.40
2018-11-22T02:42:51.557Z,1021.42
2018-11-22T02:42:52.156Z,1021.38
2018-11-22T02:42:52.761Z,1021.41
2018-11-22T02:42:53.356Z,1021.40
2018-11-22T02:43:47.860Z,1021.41
2018-11-22T02:43:48.432Z,1021.40
2018-11-22T02:43:49.032Z,1021.38
2018-11-22T02:43:49.633Z,1021.39
2018-11-22T02:43:50.232Z,1021.38
2018-11-22T02:43:50.832Z,1021.35
2018-11-22T02:43:51.431Z,1021.38
2018-11-22T02:43:52.031Z,1021.37
2018-11-22T02:44:46.535Z,1021.44
2018-11-22T02:44:47.107Z,1021.45
2018-11-22T02:44:47.706Z,1021.38
2018-11-22T02:44:48.307Z,1021.36
2018-11-22T02:44:48.906Z,1021.40
2018-11-22T02:44:49.507Z,1021.41
2018-11-22T02:44:50.108Z,1021.41
2018-11-22T02:44:50.707Z,1021.39
2018-11-22T02:45:44.186Z,1021.38
2018-11-22T02:45:44.759Z,1021.37
2018-11-22T02:45:45.360Z,1021.37
2018-11-22T02:45:45.959Z,1021.41
2018-11-22T02:45:46.561Z,1021.40
2018-11-22T02:45:47.158Z,1021.41
2018-11-22T02:45:47.761Z,1021.36
2018-11-22T02:45:48.358Z,1021.37
2018-11-22T02:46:41.840Z,1021.41
2018-11-22T02:46:42.415Z,1021.39
2018-11-22T02:46:43.012Z,1021.39
2018-11-22T02:46:43.612Z,1021.40
2018-11-22T02:46:44.212Z,1021.39
2018-11-22T02:46:44.811Z,1021.38
2018-11-22T02:46:45.412Z,1021.42
2018-11-22T02:46:46.011Z,1021.39
2018-11-22T02:47:39.489Z,1021.40
2018-11-22T02:47:40.063Z,1021.34
2018-11-22T02:47:40.664Z,1021.38
2018-11-22T02:47:41.263Z,1021.41
2018-11-22T02:47:41.863Z,1021.38
2018-11-22T02:47:42.462Z,1021.37
2018-11-22T02:47:43.062Z,1021.36
2018-11-22T02:47:43.662Z,1021.41
2018-11-22T02:48:37.118Z,1021.38
2018-11-22T02:48:37.720Z,1021.39
2018-11-22T02:48:38.314Z,1021.41
2018-11-22T02:48:38.914Z,1021.39
2018-11-22T02:48:39.515Z,1021.37
2018-11-22T02:48:40.113Z,1021.36
2018-11-22T02:48:40.714Z,1021.41
2018-11-22T02:48:41.313Z,1021.40
2018-11-22T02:49:34.769Z,1021.36
2018-11-22T02:49:35.366Z,1021.32
2018-11-22T02:49:35.967Z,1021.35
2018-11-22T02:49:36.567Z,1021.36
2018-11-22T02:49:37.166Z,1021.38
2018-11-22T02:49:37.767Z,1021.38
2018-11-22T02:49:38.370Z,1021.34
2018-11-22T02:49:38.967Z,1021.36
2018-11-22T02:50:32.420Z,1021.37
2018-11-22T02:50:33.018Z,1021.35
2018-11-22T02:50:33.619Z,1021.38
2018-11-22T02:50:34.217Z,1021.40
2018-11-22T02:50:34.817Z,1021.38
2018-11-22T02:50:35.419Z,1021.38
2018-11-22T02:50:36.019Z,1021.41
2018-11-22T02:50:36.617Z,1021.41
2018-11-22T02:51:30.073Z,1021.40
2018-11-22T02:51:30.671Z,1021.37
2018-11-22T02:51:31.269Z,1021.40
2018-11-22T02:51:31.870Z,1021.38
2018-11-22T02:51:32.472Z,1021.41
2018-11-22T02:51:33.071Z,1021.35
2018-11-22T02:51:33.671Z,1021.37
2018-11-22T02:51:34.269Z,1021.38
2018-11-22T02:52:28.772Z,1021.41
2018-11-22T02:52:29.346Z,1021.38
2018-11-22T02:52:29.948Z,1021.40
2018-11-22T02:52:30.546Z,1021.38
2018-11-22T02:52:31.144Z,1021.37
2018-11-22T02:52:31.744Z,1021.42
2018-11-22T02:52:32.345Z,1021.42
2018-11-22T02:52:32.945Z,1021.45
2018-11-22T02:53:26.400Z,1021.37
2018-11-22T02:53:27.004Z,1021.39
2018-11-22T02:53:27.598Z,1021.38
2018-11-22T02:53:28.196Z,1021.39
2018-11-22T02:53:28.796Z,1021.34
2018-11-22T02:53:29.397Z,1021.37
2018-11-22T02:53:29.996Z,1021.39
2018-11-22T02:53:30.596Z,1021.38
2018-11-22T02:54:25.077Z,1021.41
2018-11-22T02:54:25.672Z,1021.43
2018-11-22T02:54:26.271Z,1021.37
2018-11-22T02:54:26.872Z,1021.38
2018-11-22T02:54:27.472Z,1021.39
2018-11-22T02:54:28.071Z,1021.39
2018-11-22T02:54:28.673Z,1021.39
2018-11-22T02:54:29.275Z,1021.40
2018-11-22T02:55:23.752Z,1021.43
2018-11-22T02:55:24.348Z,1021.42
2018-11-22T02:55:24.952Z,1021.42
2018-11-22T02:55:25.548Z,1021.47
2018-11-22T02:55:26.147Z,1021.44
2018-11-22T02:55:26.747Z,1021.47
2018-11-22T02:55:27.349Z,1021.45
2018-11-22T02:55:27.947Z,1021.43
2018-11-22T02:56:21.405Z,1021.42
2018-11-22T02:56:22.001Z,1021.41
2018-11-22T02:56:22.604Z,1021.42
2018-11-22T02:56:23.200Z,1021.39
2018-11-22T02:56:23.801Z,1021.39
2018-11-22T02:56:24.403Z,1021.38